Brutus, Michigan
Current Conditions -  °F | °C
As of 9:54 AM on Sunday 23 Nov 2014 (Local Time) from KPLN Reporting Station
Moderate Fog Moderate Fog  
Wind Chill: 35°   Ceiling: 200
Heat Index: 40°   Visibility: 0mi
Dew Point: 39°   Wind: 7mph
Humidity: 97%   Direction: 140°SE
Pressure: 29.72"   Gusts: NA
Location:  45.49°N, 84.78°W
Report Text: KPLN 231454Z AUTO 14006KT M1/4SM FG VV002 04/04 A2972 RMK AO2 SLP071 T00440039 56008
Loading
Personal Weather Stations






























Interactive Weather Map New forecast layout! Learn more

10-Day Weather Forecast

Advertisements
Track Severe Weather on mobile